sensor_id;sensor_type;location;lat;lon;timestamp;P1;durP1;ratioP1;P2;durP2;ratioP2
9496;SDS011;4786;51.270;4.456;2022-10-22T00:00:22;10.77;;;3.50;;
9496;SDS011;4786;51.270;4.456;2022-10-22T00:02:47;7.30;;;3.60;;
9496;SDS011;4786;51.270;4.456;2022-10-22T00:05:14;7.20;;;3.50;;
9496;SDS011;4786;51.270;4.456;2022-10-22T00:07:40;6.77;;;3.40;;
9496;SDS011;4786;51.270;4.456;2022-10-22T00:10:09;6.77;;;3.47;;
9496;SDS011;4786;51.270;4.456;2022-10-22T00:12:38;5.17;;;3.17;;
9496;SDS011;4786;51.270;4.456;2022-10-22T00:15:04;7.20;;;3.37;;
9496;SDS011;4786;51.270;4.456;2022-10-22T00:17:32;6.07;;;3.17;;
9496;SDS011;4786;51.270;4.456;2022-10-22T00:19:58;7.83;;;3.87;;
9496;SDS011;4786;51.270;4.456;2022-10-22T00:22:24;5.37;;;3.20;;
9496;SDS011;4786;51.270;4.456;2022-10-22T00:24:50;6.40;;;3.17;;
9496;SDS011;4786;51.270;4.456;2022-10-22T00:27:15;7.33;;;2.97;;
9496;SDS011;4786;51.270;4.456;2022-10-22T00:29:41;6.50;;;3.40;;
9496;SDS011;4786;51.270;4.456;2022-10-22T00:32:07;8.30;;;3.30;;
9496;SDS011;4786;51.270;4.456;2022-10-22T00:34:33;7.10;;;3.67;;
9496;SDS011;4786;51.270;4.456;2022-10-22T00:36:59;5.80;;;3.27;;
9496;SDS011;4786;51.270;4.456;2022-10-22T00:39:25;8.27;;;3.10;;
9496;SDS011;4786;51.270;4.456;2022-10-22T00:41:53;6.90;;;2.97;;
9496;SDS011;4786;51.270;4.456;2022-10-22T00:47:24;9.50;;;3.37;;
9496;SDS011;4786;51.270;4.456;2022-10-22T00:49:52;7.53;;;3.23;;
9496;SDS011;4786;51.270;4.456;2022-10-22T00:52:20;9.50;;;3.23;;
9496;SDS011;4786;51.270;4.456;2022-10-22T00:54:46;6.37;;;3.73;;
9496;SDS011;4786;51.270;4.456;2022-10-22T00:57:13;8.97;;;3.47;;
9496;SDS011;4786;51.270;4.456;2022-10-22T00:59:40;10.87;;;3.93;;
9496;SDS011;4786;51.270;4.456;2022-10-22T01:02:06;7.53;;;3.30;;
9496;SDS011;4786;51.270;4.456;2022-10-22T01:04:32;5.23;;;3.10;;
9496;SDS011;4786;51.270;4.456;2022-10-22T01:06:58;8.30;;;3.30;;
9496;SDS011;4786;51.270;4.456;2022-10-22T01:09:45;7.83;;;3.73;;
9496;SDS011;4786;51.270;4.456;2022-10-22T01:12:37;6.93;;;3.00;;
9496;SDS011;4786;51.270;4.456;2022-10-22T01:17:59;9.47;;;3.87;;
9496;SDS011;4786;51.270;4.456;2022-10-22T01:29:21;5.50;;;3.37;;
9496;SDS011;4786;51.270;4.456;2022-10-22T01:31:54;5.20;;;3.17;;
9496;SDS011;4786;51.270;4.456;2022-10-22T01:34:25;7.00;;;3.50;;
9496;SDS011;4786;51.270;4.456;2022-10-22T01:36:54;7.03;;;3.70;;
9496;SDS011;4786;51.270;4.456;2022-10-22T01:39:22;8.50;;;3.50;;
9496;SDS011;4786;51.270;4.456;2022-10-22T01:41:49;5.73;;;3.20;;
9496;SDS011;4786;51.270;4.456;2022-10-22T01:44:28;10.10;;;3.43;;
9496;SDS011;4786;51.270;4.456;2022-10-22T02:00:42;7.60;;;3.63;;
9496;SDS011;4786;51.270;4.456;2022-10-22T02:03:23;8.47;;;3.47;;
9496;SDS011;4786;51.270;4.456;2022-10-22T02:05:53;8.10;;;3.40;;
9496;SDS011;4786;51.270;4.456;2022-10-22T02:08:24;5.83;;;3.10;;
9496;SDS011;4786;51.270;4.456;2022-10-22T02:10:53;9.17;;;3.50;;
9496;SDS011;4786;51.270;4.456;2022-10-22T02:13:29;7.83;;;3.27;;
9496;SDS011;4786;51.270;4.456;2022-10-22T02:16:07;7.63;;;3.80;;
9496;SDS011;4786;51.270;4.456;2022-10-22T02:18:36;7.03;;;3.07;;
9496;SDS011;4786;51.270;4.456;2022-10-22T02:21:05;7.10;;;3.07;;
9496;SDS011;4786;51.270;4.456;2022-10-22T02:23:32;10.47;;;3.20;;
9496;SDS011;4786;51.270;4.456;2022-10-22T02:26:04;12.03;;;3.50;;
9496;SDS011;4786;51.270;4.456;2022-10-22T02:31:22;8.10;;;3.20;;
9496;SDS011;4786;51.270;4.456;2022-10-22T02:33:52;7.43;;;3.00;;
9496;SDS011;4786;51.270;4.456;2022-10-22T02:36:21;6.33;;;3.10;;
9496;SDS011;4786;51.270;4.456;2022-10-22T02:38:48;7.93;;;3.20;;
9496;SDS011;4786;51.270;4.456;2022-10-22T02:41:16;8.10;;;3.73;;
9496;SDS011;4786;51.270;4.456;2022-10-22T02:43:44;8.03;;;3.60;;
9496;SDS011;4786;51.270;4.456;2022-10-22T02:46:15;11.63;;;3.53;;
9496;SDS011;4786;51.270;4.456;2022-10-22T02:48:40;7.23;;;3.07;;
9496;SDS011;4786;51.270;4.456;2022-10-22T02:51:06;7.73;;;3.17;;
9496;SDS011;4786;51.270;4.456;2022-10-22T02:53:32;7.93;;;3.17;;
9496;SDS011;4786;51.270;4.456;2022-10-22T02:55:58;7.17;;;3.50;;
9496;SDS011;4786;51.270;4.456;2022-10-22T02:58:24;7.33;;;2.90;;
9496;SDS011;4786;51.270;4.456;2022-10-22T03:00:50;8.57;;;3.07;;
9496;SDS011;4786;51.270;4.456;2022-10-22T03:03:16;11.20;;;3.73;;
9496;SDS011;4786;51.270;4.456;2022-10-22T03:05:42;5.57;;;3.30;;
9496;SDS011;4786;51.270;4.456;2022-10-22T03:08:07;9.07;;;3.47;;
9496;SDS011;4786;51.270;4.456;2022-10-22T03:10:33;6.97;;;2.90;;
9496;SDS011;4786;51.270;4.456;2022-10-22T03:12:58;6.93;;;3.40;;
9496;SDS011;4786;51.270;4.456;2022-10-22T03:15:25;9.90;;;3.23;;
9496;SDS011;4786;51.270;4.456;2022-10-22T03:17:51;11.13;;;3.13;;
9496;SDS011;4786;51.270;4.456;2022-10-22T03:20:16;6.97;;;3.20;;
9496;SDS011;4786;51.270;4.456;2022-10-22T03:22:42;8.87;;;3.00;;
9496;SDS011;4786;51.270;4.456;2022-10-22T03:25:10;10.47;;;3.60;;
9496;SDS011;4786;51.270;4.456;2022-10-22T03:27:40;10.27;;;3.23;;
9496;SDS011;4786;51.270;4.456;2022-10-22T03:30:07;11.57;;;3.30;;
9496;SDS011;4786;51.270;4.456;2022-10-22T03:32:34;8.20;;;3.00;;
9496;SDS011;4786;51.270;4.456;2022-10-22T03:34:59;8.10;;;3.10;;
9496;SDS011;4786;51.270;4.456;2022-10-22T03:37:25;5.73;;;2.60;;
9496;SDS011;4786;51.270;4.456;2022-10-22T03:39:52;9.07;;;2.80;;
9496;SDS011;4786;51.270;4.456;2022-10-22T03:42:19;10.73;;;3.10;;
9496;SDS011;4786;51.270;4.456;2022-10-22T03:44:45;6.80;;;3.33;;
9496;SDS011;4786;51.270;4.456;2022-10-22T03:47:11;9.93;;;3.10;;
9496;SDS011;4786;51.270;4.456;2022-10-22T03:49:38;8.27;;;2.90;;
9496;SDS011;4786;51.270;4.456;2022-10-22T03:52:08;8.53;;;2.83;;
9496;SDS011;4786;51.270;4.456;2022-10-22T03:54:35;10.53;;;2.73;;
9496;SDS011;4786;51.270;4.456;2022-10-22T03:57:02;6.10;;;2.80;;
9496;SDS011;4786;51.270;4.456;2022-10-22T03:59:33;8.03;;;2.40;;
9496;SDS011;4786;51.270;4.456;2022-10-22T04:02:00;10.90;;;3.17;;
9496;SDS011;4786;51.270;4.456;2022-10-22T04:04:27;7.03;;;2.67;;
9496;SDS011;4786;51.270;4.456;2022-10-22T04:06:53;10.13;;;3.00;;
9496;SDS011;4786;51.270;4.456;2022-10-22T04:09:19;8.10;;;2.90;;
9496;SDS011;4786;51.270;4.456;2022-10-22T04:11:45;7.80;;;2.70;;
9496;SDS011;4786;51.270;4.456;2022-10-22T04:14:14;10.00;;;3.37;;
9496;SDS011;4786;51.270;4.456;2022-10-22T04:16:40;12.53;;;3.20;;
9496;SDS011;4786;51.270;4.456;2022-10-22T04:19:07;10.13;;;2.97;;
9496;SDS011;4786;51.270;4.456;2022-10-22T04:21:32;8.70;;;2.97;;
9496;SDS011;4786;51.270;4.456;2022-10-22T04:23:59;10.30;;;2.80;;
9496;SDS011;4786;51.270;4.456;2022-10-22T04:26:28;11.77;;;3.10;;
9496;SDS011;4786;51.270;4.456;2022-10-22T04:28:54;10.47;;;2.77;;
9496;SDS011;4786;51.270;4.456;2022-10-22T04:31:21;10.30;;;2.80;;
9496;SDS011;4786;51.270;4.456;2022-10-22T04:33:55;7.97;;;2.47;;
9496;SDS011;4786;51.270;4.456;2022-10-22T04:36:22;7.97;;;2.60;;
9496;SDS011;4786;51.270;4.456;2022-10-22T04:38:55;13.17;;;2.80;;
9496;SDS011;4786;51.270;4.456;2022-10-22T04:41:24;6.93;;;2.77;;
9496;SDS011;4786;51.270;4.456;2022-10-22T04:43:52;10.80;;;2.80;;
9496;SDS011;4786;51.270;4.456;2022-10-22T04:46:19;12.07;;;3.33;;
9496;SDS011;4786;51.270;4.456;2022-10-22T04:48:45;8.47;;;2.73;;
9496;SDS011;4786;51.270;4.456;2022-10-22T04:51:12;8.27;;;2.50;;
9496;SDS011;4786;51.270;4.456;2022-10-22T04:53:39;8.60;;;2.97;;
9496;SDS011;4786;51.270;4.456;2022-10-22T04:56:06;7.70;;;2.70;;
9496;SDS011;4786;51.270;4.456;2022-10-22T04:58:33;8.23;;;2.60;;
9496;SDS011;4786;51.270;4.456;2022-10-22T05:01:00;6.03;;;2.50;;
9496;SDS011;4786;51.270;4.456;2022-10-22T05:03:32;7.87;;;2.70;;
9496;SDS011;4786;51.270;4.456;2022-10-22T05:05:59;8.43;;;2.77;;
9496;SDS011;4786;51.270;4.456;2022-10-22T05:08:26;11.20;;;3.03;;
9496;SDS011;4786;51.270;4.456;2022-10-22T05:10:52;8.93;;;2.57;;
9496;SDS011;4786;51.270;4.456;2022-10-22T05:13:18;7.53;;;2.50;;
9496;SDS011;4786;51.270;4.456;2022-10-22T05:15:44;7.97;;;2.67;;
9496;SDS011;4786;51.270;4.456;2022-10-22T05:18:09;7.77;;;2.47;;
9496;SDS011;4786;51.270;4.456;2022-10-22T05:20:37;8.90;;;2.10;;
9496;SDS011;4786;51.270;4.456;2022-10-22T05:23:04;9.97;;;2.57;;
9496;SDS011;4786;51.270;4.456;2022-10-22T05:25:30;11.77;;;2.67;;
9496;SDS011;4786;51.270;4.456;2022-10-22T05:27:56;10.03;;;2.70;;
9496;SDS011;4786;51.270;4.456;2022-10-22T05:30:22;9.87;;;2.80;;
9496;SDS011;4786;51.270;4.456;2022-10-22T05:32:47;10.97;;;3.47;;
9496;SDS011;4786;51.270;4.456;2022-10-22T05:35:13;10.93;;;3.13;;
9496;SDS011;4786;51.270;4.456;2022-10-22T05:37:39;11.70;;;2.90;;
9496;SDS011;4786;51.270;4.456;2022-10-22T05:40:05;8.90;;;3.10;;
9496;SDS011;4786;51.270;4.456;2022-10-22T05:42:31;7.57;;;2.47;;
9496;SDS011;4786;51.270;4.456;2022-10-22T05:44:57;6.97;;;2.60;;
9496;SDS011;4786;51.270;4.456;2022-10-22T05:47:23;9.20;;;2.77;;
9496;SDS011;4786;51.270;4.456;2022-10-22T05:49:49;9.87;;;2.83;;
9496;SDS011;4786;51.270;4.456;2022-10-22T05:52:15;6.87;;;2.83;;
9496;SDS011;4786;51.270;4.456;2022-10-22T05:54:41;7.53;;;2.73;;
9496;SDS011;4786;51.270;4.456;2022-10-22T05:57:07;7.90;;;2.60;;
9496;SDS011;4786;51.270;4.456;2022-10-22T05:59:32;8.27;;;2.60;;
9496;SDS011;4786;51.270;4.456;2022-10-22T06:01:58;8.67;;;2.50;;
9496;SDS011;4786;51.270;4.456;2022-10-22T06:04:24;9.63;;;2.70;;
9496;SDS011;4786;51.270;4.456;2022-10-22T06:06:50;4.50;;;2.40;;
9496;SDS011;4786;51.270;4.456;2022-10-22T06:11:51;9.37;;;2.73;;
9496;SDS011;4786;51.270;4.456;2022-10-22T06:14:17;9.87;;;2.73;;
9496;SDS011;4786;51.270;4.456;2022-10-22T06:16:44;4.40;;;2.30;;
9496;SDS011;4786;51.270;4.456;2022-10-22T06:19:10;11.40;;;2.50;;
9496;SDS011;4786;51.270;4.456;2022-10-22T06:21:36;7.10;;;2.73;;
9496;SDS011;4786;51.270;4.456;2022-10-22T06:24:03;9.50;;;2.57;;
9496;SDS011;4786;51.270;4.456;2022-10-22T06:26:29;9.53;;;2.77;;
9496;SDS011;4786;51.270;4.456;2022-10-22T06:28:55;8.03;;;2.83;;
9496;SDS011;4786;51.270;4.456;2022-10-22T06:31:23;9.83;;;2.73;;
9496;SDS011;4786;51.270;4.456;2022-10-22T06:33:49;8.80;;;2.57;;
9496;SDS011;4786;51.270;4.456;2022-10-22T06:36:16;10.83;;;2.80;;
9496;SDS011;4786;51.270;4.456;2022-10-22T06:38:44;11.33;;;3.03;;
9496;SDS011;4786;51.270;4.456;2022-10-22T06:41:11;8.03;;;2.87;;
9496;SDS011;4786;51.270;4.456;2022-10-22T06:43:38;8.53;;;2.93;;
9496;SDS011;4786;51.270;4.456;2022-10-22T06:46:06;7.90;;;2.73;;
9496;SDS011;4786;51.270;4.456;2022-10-22T06:48:37;9.23;;;2.47;;
9496;SDS011;4786;51.270;4.456;2022-10-22T06:51:05;7.73;;;2.50;;
9496;SDS011;4786;51.270;4.456;2022-10-22T06:53:32;9.57;;;3.00;;
9496;SDS011;4786;51.270;4.456;2022-10-22T06:56:03;9.47;;;2.80;;
9496;SDS011;4786;51.270;4.456;2022-10-22T06:58:39;7.40;;;2.50;;
9496;SDS011;4786;51.270;4.456;2022-10-22T07:01:06;10.13;;;2.60;;
9496;SDS011;4786;51.270;4.456;2022-10-22T07:03:37;5.90;;;2.50;;
9496;SDS011;4786;51.270;4.456;2022-10-22T07:06:04;9.20;;;2.90;;
9496;SDS011;4786;51.270;4.456;2022-10-22T07:08:32;8.50;;;2.80;;
9496;SDS011;4786;51.270;4.456;2022-10-22T07:11:06;6.60;;;2.23;;
9496;SDS011;4786;51.270;4.456;2022-10-22T07:13:36;8.97;;;3.13;;
9496;SDS011;4786;51.270;4.456;2022-10-22T07:16:03;8.23;;;2.53;;
9496;SDS011;4786;51.270;4.456;2022-10-22T07:18:30;12.40;;;2.80;;
9496;SDS011;4786;51.270;4.456;2022-10-22T07:20:57;8.60;;;3.00;;
9496;SDS011;4786;51.270;4.456;2022-10-22T07:23:23;9.43;;;2.63;;
9496;SDS011;4786;51.270;4.456;2022-10-22T07:25:50;9.47;;;2.70;;
9496;SDS011;4786;51.270;4.456;2022-10-22T07:28:17;15.33;;;3.27;;
9496;SDS011;4786;51.270;4.456;2022-10-22T07:30:43;10.67;;;3.30;;
9496;SDS011;4786;51.270;4.456;2022-10-22T07:33:08;7.47;;;2.93;;
9496;SDS011;4786;51.270;4.456;2022-10-22T07:35:35;9.27;;;2.50;;
9496;SDS011;4786;51.270;4.456;2022-10-22T07:38:02;7.27;;;2.60;;
9496;SDS011;4786;51.270;4.456;2022-10-22T07:40:29;8.67;;;2.73;;
9496;SDS011;4786;51.270;4.456;2022-10-22T07:42:55;7.33;;;2.40;;
9496;SDS011;4786;51.270;4.456;2022-10-22T07:45:21;13.70;;;3.37;;
9496;SDS011;4786;51.270;4.456;2022-10-22T07:47:47;8.73;;;2.27;;
9496;SDS011;4786;51.270;4.456;2022-10-22T07:50:13;7.27;;;2.47;;
9496;SDS011;4786;51.270;4.456;2022-10-22T07:52:39;10.50;;;2.97;;
9496;SDS011;4786;51.270;4.456;2022-10-22T07:55:05;7.10;;;2.50;;
9496;SDS011;4786;51.270;4.456;2022-10-22T07:57:31;8.60;;;3.00;;
9496;SDS011;4786;51.270;4.456;2022-10-22T07:59:57;6.10;;;2.87;;
9496;SDS011;4786;51.270;4.456;2022-10-22T08:02:23;8.93;;;2.93;;
9496;SDS011;4786;51.270;4.456;2022-10-22T08:04:49;10.43;;;3.03;;
9496;SDS011;4786;51.270;4.456;2022-10-22T08:07:16;5.80;;;2.37;;
9496;SDS011;4786;51.270;4.456;2022-10-22T08:09:42;9.27;;;3.20;;
9496;SDS011;4786;51.270;4.456;2022-10-22T08:12:11;9.43;;;2.53;;
9496;SDS011;4786;51.270;4.456;2022-10-22T08:14:37;9.57;;;3.03;;
9496;SDS011;4786;51.270;4.456;2022-10-22T08:17:03;10.63;;;2.80;;
9496;SDS011;4786;51.270;4.456;2022-10-22T08:19:31;8.80;;;2.90;;
9496;SDS011;4786;51.270;4.456;2022-10-22T08:21:57;8.33;;;3.37;;
9496;SDS011;4786;51.270;4.456;2022-10-22T08:24:23;10.80;;;2.87;;
9496;SDS011;4786;51.270;4.456;2022-10-22T08:26:50;8.43;;;2.67;;
9496;SDS011;4786;51.270;4.456;2022-10-22T08:29:18;8.37;;;2.80;;
9496;SDS011;4786;51.270;4.456;2022-10-22T08:31:45;7.37;;;2.63;;
9496;SDS011;4786;51.270;4.456;2022-10-22T08:34:11;9.13;;;2.70;;
9496;SDS011;4786;51.270;4.456;2022-10-22T08:36:37;9.33;;;2.53;;
9496;SDS011;4786;51.270;4.456;2022-10-22T08:39:02;9.27;;;2.60;;
9496;SDS011;4786;51.270;4.456;2022-10-22T08:41:28;11.63;;;2.73;;
9496;SDS011;4786;51.270;4.456;2022-10-22T08:44:05;10.70;;;2.67;;
9496;SDS011;4786;51.270;4.456;2022-10-22T08:49:30;7.53;;;2.70;;
9496;SDS011;4786;51.270;4.456;2022-10-22T08:51:59;9.40;;;3.30;;
9496;SDS011;4786;51.270;4.456;2022-10-22T09:00:19;9.73;;;2.73;;
9496;SDS011;4786;51.270;4.456;2022-10-22T09:06:10;8.87;;;2.73;;
9496;SDS011;4786;51.270;4.456;2022-10-22T09:08:42;8.83;;;2.87;;
9496;SDS011;4786;51.270;4.456;2022-10-22T09:13:35;13.10;;;2.97;;
9496;SDS011;4786;51.270;4.456;2022-10-22T09:19:16;9.43;;;3.07;;
9496;SDS011;4786;51.270;4.456;2022-10-22T09:27:12;9.43;;;3.00;;
9496;SDS011;4786;51.270;4.456;2022-10-22T09:29:40;8.63;;;2.57;;
9496;SDS011;4786;51.270;4.456;2022-10-22T09:32:08;9.30;;;2.60;;
9496;SDS011;4786;51.270;4.456;2022-10-22T09:34:33;11.87;;;2.57;;
9496;SDS011;4786;51.270;4.456;2022-10-22T09:37:01;6.27;;;2.10;;
9496;SDS011;4786;51.270;4.456;2022-10-22T09:39:37;8.47;;;2.30;;
9496;SDS011;4786;51.270;4.456;2022-10-22T09:42:05;7.13;;;2.27;;
9496;SDS011;4786;51.270;4.456;2022-10-22T09:44:33;7.40;;;2.20;;
9496;SDS011;4786;51.270;4.456;2022-10-22T09:47:06;9.60;;;2.80;;
9496;SDS011;4786;51.270;4.456;2022-10-22T09:50:02;10.13;;;2.67;;
9496;SDS011;4786;51.270;4.456;2022-10-22T09:52:31;6.33;;;2.40;;
9496;SDS011;4786;51.270;4.456;2022-10-22T09:55:00;9.20;;;2.57;;
9496;SDS011;4786;51.270;4.456;2022-10-22T09:57:28;5.47;;;2.23;;
9496;SDS011;4786;51.270;4.456;2022-10-22T09:59:53;6.53;;;2.45;;
9496;SDS011;4786;51.270;4.456;2022-10-22T10:02:26;12.57;;;2.88;;
9496;SDS011;4786;51.270;4.456;2022-10-22T10:04:54;8.88;;;2.70;;
9496;SDS011;4786;51.270;4.456;2022-10-22T10:07:25;9.52;;;3.15;;
9496;SDS011;4786;51.270;4.456;2022-10-22T10:09:54;11.07;;;2.55;;
9496;SDS011;4786;51.270;4.456;2022-10-22T10:15:26;9.88;;;2.80;;
9496;SDS011;4786;51.270;4.456;2022-10-22T10:23:32;7.90;;;2.50;;
9496;SDS011;4786;51.270;4.456;2022-10-22T10:26:27;8.87;;;2.70;;
9496;SDS011;4786;51.270;4.456;2022-10-22T10:35:11;9.63;;;2.77;;
9496;SDS011;4786;51.270;4.456;2022-10-22T10:38:04;10.00;;;2.77;;
9496;SDS011;4786;51.270;4.456;2022-10-22T10:40:49;11.43;;;2.58;;
9496;SDS011;4786;51.270;4.456;2022-10-22T10:51:41;8.05;;;2.55;;
9496;SDS011;4786;51.270;4.456;2022-10-22T10:56:52;8.60;;;3.20;;
9496;SDS011;4786;51.270;4.456;2022-10-22T10:59:48;9.38;;;2.72;;
9496;SDS011;4786;51.270;4.456;2022-10-22T11:05:53;6.30;;;2.15;;
9496;SDS011;4786;51.270;4.456;2022-10-22T11:08:27;9.25;;;2.63;;
9496;SDS011;4786;51.270;4.456;2022-10-22T11:13:46;12.15;;;2.38;;
9496;SDS011;4786;51.270;4.456;2022-10-22T11:16:25;9.73;;;2.45;;
9496;SDS011;4786;51.270;4.456;2022-10-22T11:24:36;9.50;;;2.60;;
9496;SDS011;4786;51.270;4.456;2022-10-22T11:29:51;7.80;;;2.78;;
9496;SDS011;4786;51.270;4.456;2022-10-22T11:32:23;8.15;;;2.72;;
9496;SDS011;4786;51.270;4.456;2022-10-22T11:35:01;9.95;;;2.58;;
9496;SDS011;4786;51.270;4.456;2022-10-22T11:37:31;10.38;;;2.92;;
9496;SDS011;4786;51.270;4.456;2022-10-22T11:40:06;8.40;;;2.30;;
9496;SDS011;4786;51.270;4.456;2022-10-22T11:42:40;8.00;;;2.55;;
9496;SDS011;4786;51.270;4.456;2022-10-22T11:47:51;7.30;;;2.30;;
9496;SDS011;4786;51.270;4.456;2022-10-22T11:53:25;10.23;;;2.78;;
9496;SDS011;4786;51.270;4.456;2022-10-22T11:56:42;9.45;;;2.45;;
9496;SDS011;4786;51.270;4.456;2022-10-22T11:58:48;7.97;;;2.67;;
9496;SDS011;4786;51.270;4.456;2022-10-22T12:01:22;9.43;;;2.70;;
9496;SDS011;4786;51.270;4.456;2022-10-22T12:04:38;11.25;;;3.13;;
9496;SDS011;4786;51.270;4.456;2022-10-22T12:06:50;11.45;;;2.75;;
9496;SDS011;4786;51.270;4.456;2022-10-22T12:09:16;9.35;;;2.63;;
9496;SDS011;4786;51.270;4.456;2022-10-22T12:11:44;7.47;;;2.58;;
9496;SDS011;4786;51.270;4.456;2022-10-22T12:17:02;7.00;;;2.10;;
9496;SDS011;4786;51.270;4.456;2022-10-22T12:19:46;9.73;;;2.45;;
9496;SDS011;4786;51.270;4.456;2022-10-22T12:22:24;9.20;;;2.40;;
9496;SDS011;4786;51.270;4.456;2022-10-22T12:24:54;7.05;;;2.72;;
9496;SDS011;4786;51.270;4.456;2022-10-22T12:30:20;10.25;;;2.45;;
9496;SDS011;4786;51.270;4.456;2022-10-22T12:32:52;6.65;;;2.40;;
9496;SDS011;4786;51.270;4.456;2022-10-22T12:35:22;6.95;;;2.22;;
9496;SDS011;4786;51.270;4.456;2022-10-22T12:37:50;6.38;;;2.13;;
9496;SDS011;4786;51.270;4.456;2022-10-22T12:40:22;6.13;;;2.20;;
9496;SDS011;4786;51.270;4.456;2022-10-22T12:42:49;7.22;;;2.30;;
9496;SDS011;4786;51.270;4.456;2022-10-22T12:45:17;6.32;;;2.38;;
9496;SDS011;4786;51.270;4.456;2022-10-22T12:47:47;6.55;;;2.20;;
9496;SDS011;4786;51.270;4.456;2022-10-22T12:50:17;6.43;;;2.42;;
9496;SDS011;4786;51.270;4.456;2022-10-22T12:52:46;9.35;;;2.35;;
9496;SDS011;4786;51.270;4.456;2022-10-22T12:55:16;8.40;;;2.45;;
9496;SDS011;4786;51.270;4.456;2022-10-22T12:57:46;5.22;;;2.20;;
9496;SDS011;4786;51.270;4.456;2022-10-22T13:00:20;5.97;;;2.30;;
9496;SDS011;4786;51.270;4.456;2022-10-22T13:02:49;8.18;;;2.90;;
9496;SDS011;4786;51.270;4.456;2022-10-22T13:07:50;5.43;;;2.35;;
9496;SDS011;4786;51.270;4.456;2022-10-22T13:10:38;8.63;;;2.17;;
9496;SDS011;4786;51.270;4.456;2022-10-22T13:13:06;6.13;;;2.25;;
9496;SDS011;4786;51.270;4.456;2022-10-22T13:15:52;5.63;;;2.10;;
9496;SDS011;4786;51.270;4.456;2022-10-22T13:20:52;7.40;;;2.45;;
9496;SDS011;4786;51.270;4.456;2022-10-22T13:23:21;7.55;;;2.05;;
9496;SDS011;4786;51.270;4.456;2022-10-22T13:26:02;7.05;;;2.25;;
9496;SDS011;4786;51.270;4.456;2022-10-22T13:28:37;7.43;;;2.40;;
9496;SDS011;4786;51.270;4.456;2022-10-22T13:31:19;5.72;;;2.00;;
9496;SDS011;4786;51.270;4.456;2022-10-22T13:33:50;5.65;;;2.30;;
9496;SDS011;4786;51.270;4.456;2022-10-22T13:36:22;7.95;;;2.50;;
9496;SDS011;4786;51.270;4.456;2022-10-22T13:38:49;4.63;;;2.00;;
9496;SDS011;4786;51.270;4.456;2022-10-22T13:41:22;6.28;;;2.00;;
9496;SDS011;4786;51.270;4.456;2022-10-22T13:43:50;7.50;;;2.20;;
9496;SDS011;4786;51.270;4.456;2022-10-22T13:46:17;6.38;;;2.15;;
9496;SDS011;4786;51.270;4.456;2022-10-22T13:48:44;8.13;;;2.55;;
9496;SDS011;4786;51.270;4.456;2022-10-22T13:51:15;5.60;;;2.03;;
9496;SDS011;4786;51.270;4.456;2022-10-22T13:53:44;6.38;;;2.20;;
9496;SDS011;4786;51.270;4.456;2022-10-22T13:56:12;5.03;;;2.47;;
9496;SDS011;4786;51.270;4.456;2022-10-22T13:58:42;6.32;;;2.40;;
9496;SDS011;4786;51.270;4.456;2022-10-22T14:01:17;7.72;;;2.17;;
9496;SDS011;4786;51.270;4.456;2022-10-22T14:03:48;5.88;;;2.22;;
9496;SDS011;4786;51.270;4.456;2022-10-22T14:06:16;5.93;;;2.25;;
9496;SDS011;4786;51.270;4.456;2022-10-22T14:08:44;5.78;;;2.42;;
9496;SDS011;4786;51.270;4.456;2022-10-22T14:11:14;7.47;;;2.80;;
9496;SDS011;4786;51.270;4.456;2022-10-22T14:13:40;6.82;;;2.50;;
9496;SDS011;4786;51.270;4.456;2022-10-22T14:16:07;7.07;;;2.63;;
9496;SDS011;4786;51.270;4.456;2022-10-22T14:18:42;6.25;;;2.38;;
9496;SDS011;4786;51.270;4.456;2022-10-22T14:21:07;6.75;;;2.50;;
9496;SDS011;4786;51.270;4.456;2022-10-22T14:23:39;6.43;;;2.20;;
9496;SDS011;4786;51.270;4.456;2022-10-22T14:26:06;6.05;;;2.38;;
9496;SDS011;4786;51.270;4.456;2022-10-22T14:28:33;3.92;;;2.25;;
9496;SDS011;4786;51.270;4.456;2022-10-22T14:30:59;5.78;;;2.50;;
9496;SDS011;4786;51.270;4.456;2022-10-22T14:33:26;5.40;;;2.42;;
9496;SDS011;4786;51.270;4.456;2022-10-22T14:35:54;6.90;;;2.33;;
9496;SDS011;4786;51.270;4.456;2022-10-22T14:38:20;6.85;;;2.30;;
9496;SDS011;4786;51.270;4.456;2022-10-22T14:40:47;7.32;;;2.70;;
9496;SDS011;4786;51.270;4.456;2022-10-22T14:43:21;9.63;;;2.70;;
9496;SDS011;4786;51.270;4.456;2022-10-22T14:45:49;5.72;;;2.45;;
9496;SDS011;4786;51.270;4.456;2022-10-22T14:48:15;6.75;;;2.72;;
9496;SDS011;4786;51.270;4.456;2022-10-22T14:50:42;3.00;;;2.40;;
9496;SDS011;4786;51.270;4.456;2022-10-22T14:53:09;5.93;;;2.60;;
9496;SDS011;4786;51.270;4.456;2022-10-22T14:55:35;4.78;;;2.35;;
9496;SDS011;4786;51.270;4.456;2022-10-22T14:58:01;5.55;;;2.30;;
9496;SDS011;4786;51.270;4.456;2022-10-22T15:00:26;6.15;;;2.28;;
9496;SDS011;4786;51.270;4.456;2022-10-22T15:02:52;5.97;;;2.33;;
9496;SDS011;4786;51.270;4.456;2022-10-22T15:05:19;5.22;;;2.33;;
9496;SDS011;4786;51.270;4.456;2022-10-22T15:07:46;4.50;;;2.15;;
9496;SDS011;4786;51.270;4.456;2022-10-22T15:10:12;5.50;;;2.08;;
9496;SDS011;4786;51.270;4.456;2022-10-22T15:12:39;6.25;;;2.33;;
9496;SDS011;4786;51.270;4.456;2022-10-22T15:15:05;6.22;;;2.20;;
9496;SDS011;4786;51.270;4.456;2022-10-22T15:17:32;4.68;;;2.90;;
9496;SDS011;4786;51.270;4.456;2022-10-22T15:20:04;4.32;;;2.40;;
9496;SDS011;4786;51.270;4.456;2022-10-22T15:22:30;5.05;;;2.30;;
9496;SDS011;4786;51.270;4.456;2022-10-22T15:24:59;7.10;;;2.55;;
9496;SDS011;4786;51.270;4.456;2022-10-22T15:27:30;8.00;;;2.90;;
9496;SDS011;4786;51.270;4.456;2022-10-22T15:29:56;6.95;;;2.65;;
9496;SDS011;4786;51.270;4.456;2022-10-22T15:32:25;7.28;;;2.63;;
9496;SDS011;4786;51.270;4.456;2022-10-22T15:34:53;5.38;;;2.55;;
9496;SDS011;4786;51.270;4.456;2022-10-22T15:37:19;4.23;;;2.37;;
9496;SDS011;4786;51.270;4.456;2022-10-22T15:39:45;4.78;;;2.35;;
9496;SDS011;4786;51.270;4.456;2022-10-22T15:42:12;7.22;;;2.47;;
9496;SDS011;4786;51.270;4.456;2022-10-22T15:44:38;6.70;;;2.60;;
9496;SDS011;4786;51.270;4.456;2022-10-22T15:47:05;8.15;;;2.90;;
9496;SDS011;4786;51.270;4.456;2022-10-22T15:49:33;4.07;;;2.15;;
9496;SDS011;4786;51.270;4.456;2022-10-22T15:52:00;3.42;;;2.13;;
9496;SDS011;4786;51.270;4.456;2022-10-22T15:54:28;5.77;;;2.33;;
9496;SDS011;4786;51.270;4.456;2022-10-22T15:56:55;6.83;;;2.60;;
9496;SDS011;4786;51.270;4.456;2022-10-22T15:59:22;4.03;;;2.20;;
9496;SDS011;4786;51.270;4.456;2022-10-22T16:01:48;6.32;;;2.40;;
9496;SDS011;4786;51.270;4.456;2022-10-22T16:04:14;3.83;;;2.20;;
9496;SDS011;4786;51.270;4.456;2022-10-22T16:06:42;3.33;;;1.92;;
9496;SDS011;4786;51.270;4.456;2022-10-22T16:09:11;5.20;;;2.47;;
9496;SDS011;4786;51.270;4.456;2022-10-22T16:11:39;4.90;;;2.03;;
9496;SDS011;4786;51.270;4.456;2022-10-22T16:14:06;6.60;;;2.30;;
9496;SDS011;4786;51.270;4.456;2022-10-22T16:16:34;6.43;;;2.13;;
9496;SDS011;4786;51.270;4.456;2022-10-22T16:19:01;4.28;;;2.08;;
9496;SDS011;4786;51.270;4.456;2022-10-22T16:21:26;5.32;;;2.28;;
9496;SDS011;4786;51.270;4.456;2022-10-22T16:23:53;4.53;;;2.07;;
9496;SDS011;4786;51.270;4.456;2022-10-22T16:26:19;6.13;;;2.40;;
9496;SDS011;4786;51.270;4.456;2022-10-22T16:28:45;3.53;;;2.00;;
9496;SDS011;4786;51.270;4.456;2022-10-22T16:31:13;6.17;;;2.57;;
9496;SDS011;4786;51.270;4.456;2022-10-22T16:33:40;5.57;;;2.07;;
9496;SDS011;4786;51.270;4.456;2022-10-22T16:36:10;6.10;;;2.67;;
9496;SDS011;4786;51.270;4.456;2022-10-22T16:38:37;3.97;;;2.17;;
9496;SDS011;4786;51.270;4.456;2022-10-22T16:41:16;6.83;;;2.60;;
9496;SDS011;4786;51.270;4.456;2022-10-22T16:43:43;4.00;;;1.93;;
9496;SDS011;4786;51.270;4.456;2022-10-22T16:46:11;6.03;;;2.10;;
9496;SDS011;4786;51.270;4.456;2022-10-22T16:48:37;5.23;;;2.47;;
9496;SDS011;4786;51.270;4.456;2022-10-22T16:51:07;6.57;;;2.37;;
9496;SDS011;4786;51.270;4.456;2022-10-22T16:53:34;5.53;;;2.60;;
9496;SDS011;4786;51.270;4.456;2022-10-22T16:56:00;10.13;;;2.73;;
9496;SDS011;4786;51.270;4.456;2022-10-22T16:58:26;9.17;;;3.00;;
9496;SDS011;4786;51.270;4.456;2022-10-22T17:00:52;8.13;;;3.40;;
9496;SDS011;4786;51.270;4.456;2022-10-22T17:03:18;7.97;;;3.37;;
9496;SDS011;4786;51.270;4.456;2022-10-22T17:05:43;5.47;;;2.70;;
9496;SDS011;4786;51.270;4.456;2022-10-22T17:08:09;8.00;;;3.40;;
9496;SDS011;4786;51.270;4.456;2022-10-22T17:10:35;7.20;;;4.13;;
9496;SDS011;4786;51.270;4.456;2022-10-22T17:13:02;8.70;;;5.70;;
9496;SDS011;4786;51.270;4.456;2022-10-22T17:15:29;10.13;;;5.57;;